createdAt,value
2023-04-16T00:01:50.815Z,5.93
2023-04-16T00:06:44.478Z,5.85
2023-04-16T00:09:11.468Z,5.80
2023-04-16T00:14:05.041Z,5.78
2023-04-16T00:16:31.860Z,6.28
2023-04-16T00:18:58.700Z,5.75
2023-04-16T00:21:26.481Z,6.80
2023-04-16T00:23:53.310Z,6.28
2023-04-16T00:26:20.471Z,5.63
2023-04-16T00:28:47.220Z,6.05
2023-04-16T00:31:14.493Z,6.35
2023-04-16T00:36:09.177Z,6.18
2023-04-16T00:38:35.952Z,6.22
2023-04-16T00:41:02.844Z,5.50
2023-04-16T00:43:30.612Z,6.10
2023-04-16T00:45:57.722Z,6.40
2023-04-16T00:48:27.704Z,6.10
2023-04-16T00:50:55.440Z,6.07
2023-04-16T00:53:22.549Z,6.03
2023-04-16T00:55:49.346Z,6.03
2023-04-16T00:58:17.040Z,7.18
2023-04-16T01:00:43.970Z,5.93
2023-04-16T01:05:38.682Z,6.22
2023-04-16T01:08:05.903Z,5.85
2023-04-16T01:10:32.721Z,5.78
2023-04-16T01:12:59.499Z,6.20
2023-04-16T01:15:26.337Z,6.03
2023-04-16T01:17:53.085Z,5.40
2023-04-16T01:20:19.832Z,6.07
2023-04-16T01:22:46.605Z,5.82
2023-04-16T01:25:16.653Z,5.32
2023-04-16T01:27:43.453Z,5.90
2023-04-16T01:30:10.837Z,8.00
2023-04-16T01:33:02.200Z,6.82
2023-04-16T01:35:31.099Z,6.45
2023-04-16T01:37:57.913Z,6.05
2023-04-16T01:40:24.899Z,6.55
2023-04-16T01:45:18.576Z,5.60
2023-04-16T01:50:12.216Z,6.60
2023-04-16T01:52:39.516Z,5.38
2023-04-16T01:55:06.785Z,5.90
2023-04-16T01:57:33.565Z,5.72
2023-04-16T02:00:00.401Z,5.93
2023-04-16T02:02:29.283Z,6.95
2023-04-16T02:04:59.447Z,5.82
2023-04-16T02:07:27.343Z,6.85
2023-04-16T02:09:54.304Z,6.25
2023-04-16T02:14:48.294Z,5.72
2023-04-16T02:17:17.137Z,6.10
2023-04-16T02:19:45.272Z,5.13
2023-04-16T02:22:12.556Z,6.47
2023-04-16T02:24:39.464Z,6.00
2023-04-16T02:27:09.154Z,6.07
2023-04-16T02:32:12.383Z,6.97
2023-04-16T02:34:43.334Z,6.90
2023-04-16T02:37:11.848Z,7.60
2023-04-16T02:42:05.540Z,7.15
2023-04-16T02:46:59.266Z,7.32
2023-04-16T02:49:26.121Z,8.43
2023-04-16T02:51:52.830Z,8.07
2023-04-16T02:54:19.551Z,8.15
2023-04-16T02:56:46.410Z,8.48
2023-04-16T02:59:13.190Z,9.07
2023-04-16T03:06:35.601Z,9.07
2023-04-16T03:11:29.177Z,10.50
2023-04-16T03:13:56.638Z,9.07
2023-04-16T03:16:23.625Z,8.43
2023-04-16T03:21:17.339Z,9.45
2023-04-16T03:23:44.191Z,7.78
2023-04-16T03:26:10.994Z,7.80
2023-04-16T03:28:37.839Z,8.68
2023-04-16T03:33:31.913Z,8.57
2023-04-16T03:35:59.086Z,9.25
2023-04-16T03:38:29.217Z,8.45
2023-04-16T03:40:57.692Z,9.73
2023-04-16T03:43:24.983Z,9.10
2023-04-16T03:45:52.259Z,9.27
2023-04-16T03:48:22.091Z,7.95
2023-04-16T03:50:49.034Z,8.20
2023-04-16T03:53:18.215Z,8.15
2023-04-16T03:55:53.283Z,8.63
2023-04-16T03:58:21.458Z,8.45
2023-04-16T04:05:49.119Z,8.43
2023-04-16T04:08:24.254Z,9.35
2023-04-16T04:10:51.890Z,10.35
2023-04-16T04:13:20.715Z,10.00
2023-04-16T04:15:58.612Z,9.02
2023-04-16T04:18:27.041Z,9.23
2023-04-16T04:20:53.860Z,9.45
2023-04-16T04:23:24.325Z,9.43
2023-04-16T04:28:17.937Z,8.85
2023-04-16T04:30:44.758Z,9.63
2023-04-16T04:33:12.131Z,9.73
2023-04-16T04:35:38.857Z,9.60
2023-04-16T04:38:06.025Z,9.55
2023-04-16T04:40:33.462Z,9.32
2023-04-16T04:43:00.943Z,8.32
2023-04-16T04:45:29.635Z,10.00
2023-04-16T04:47:58.274Z,9.95
2023-04-16T04:50:25.495Z,9.50
2023-04-16T04:55:19.308Z,9.07
2023-04-16T05:00:13.314Z,10.18
2023-04-16T05:02:48.303Z,9.85
2023-04-16T05:05:15.484Z,8.75
2023-04-16T05:07:42.558Z,9.32
2023-04-16T05:12:36.293Z,8.18
2023-04-16T05:17:29.852Z,9.00
2023-04-16T05:19:56.648Z,8.68
2023-04-16T05:22:23.434Z,8.57
2023-04-16T05:24:50.184Z,9.30
2023-04-16T05:27:17.010Z,9.70
2023-04-16T05:29:43.867Z,9.88
2023-04-16T05:32:10.699Z,9.88
2023-04-16T05:34:37.518Z,8.88
2023-04-16T05:37:04.262Z,8.10
2023-04-16T05:39:31.046Z,9.27
2023-04-16T05:41:57.903Z,7.97
2023-04-16T05:44:24.629Z,9.02
2023-04-16T05:46:51.736Z,8.70
2023-04-16T05:49:22.437Z,9.32
2023-04-16T05:51:50.884Z,10.45
2023-04-16T05:54:18.150Z,9.15
2023-04-16T05:56:45.179Z,9.40
2023-04-16T05:59:12.193Z,8.95
2023-04-16T06:04:06.271Z,7.80
2023-04-16T06:06:33.274Z,9.80
2023-04-16T06:09:00.014Z,10.00
2023-04-16T06:11:27.565Z,9.98
2023-04-16T06:13:54.624Z,11.10
2023-04-16T06:18:48.262Z,8.82
2023-04-16T06:23:42.452Z,9.85
2023-04-16T06:26:09.208Z,9.32
2023-04-16T06:28:36.117Z,11.32
2023-04-16T06:33:30.817Z,9.95
2023-04-16T06:35:57.710Z,11.98
2023-04-16T06:40:51.201Z,10.38
2023-04-16T06:43:18.064Z,10.63
2023-04-16T06:45:45.322Z,10.07
2023-04-16T06:48:12.083Z,10.25
2023-04-16T06:50:39.037Z,10.15
2023-04-16T06:55:32.659Z,10.60
2023-04-16T06:57:59.421Z,10.48
2023-04-16T07:02:53.876Z,9.40
2023-04-16T07:05:21.884Z,10.60
2023-04-16T07:07:48.736Z,11.82
2023-04-16T07:10:15.873Z,11.43
2023-04-16T07:12:42.706Z,10.15
2023-04-16T07:15:10.044Z,10.73
2023-04-16T07:17:36.881Z,9.82
2023-04-16T07:20:04.097Z,10.30
2023-04-16T07:22:31.062Z,8.95
2023-04-16T07:27:24.608Z,10.10
2023-04-16T07:29:51.354Z,11.63
2023-04-16T07:32:18.251Z,11.38
2023-04-16T07:37:11.758Z,11.15
2023-04-16T07:39:38.546Z,10.63
2023-04-16T07:42:06.388Z,9.68
2023-04-16T07:44:33.464Z,10.43
2023-04-16T07:47:00.257Z,11.07
2023-04-16T07:49:27.016Z,10.05
2023-04-16T07:51:53.904Z,8.68
2023-04-16T07:56:47.539Z,7.93
2023-04-16T07:59:22.554Z,9.00
2023-04-16T08:01:50.334Z,9.52
2023-04-16T08:04:23.005Z,8.15
2023-04-16T08:06:51.525Z,9.05
2023-04-16T08:09:20.540Z,9.18
2023-04-16T08:11:49.991Z,7.97
2023-04-16T08:14:17.447Z,7.57
2023-04-16T08:16:44.370Z,7.82
2023-04-16T08:19:11.391Z,8.05
2023-04-16T08:21:38.544Z,7.82
2023-04-16T08:24:05.560Z,8.07
2023-04-16T08:26:32.312Z,8.38
2023-04-16T08:28:59.098Z,7.28
2023-04-16T08:31:26.020Z,7.93
2023-04-16T08:36:19.488Z,9.23
2023-04-16T08:38:46.218Z,8.10
2023-04-16T08:41:14.972Z,8.30
2023-04-16T08:43:47.473Z,8.82
2023-04-16T08:46:17.365Z,8.05
2023-04-16T08:48:48.807Z,9.23
2023-04-16T09:15:54.952Z,9.18
2023-04-16T09:18:21.827Z,10.68
2023-04-16T09:20:49.918Z,11.35
2023-04-16T09:23:17.175Z,10.35
2023-04-16T09:25:44.079Z,10.15
2023-04-16T09:30:38.095Z,9.85
2023-04-16T09:36:02.331Z,9.80
2023-04-16T09:38:49.567Z,9.50
2023-04-16T09:41:16.623Z,11.02
2023-04-16T09:44:09.282Z,9.30
2023-04-16T09:46:40.778Z,10.68
2023-04-16T09:49:18.839Z,10.13
2023-04-16T09:51:48.277Z,9.98
2023-04-16T09:54:15.671Z,10.38
2023-04-16T09:56:46.996Z,10.93
2023-04-16T09:59:23.921Z,10.07
2023-04-16T10:01:53.334Z,13.15
2023-04-16T10:04:47.977Z,9.25
2023-04-16T10:07:14.934Z,8.75
2023-04-16T10:12:09.211Z,9.95
2023-04-16T10:14:36.276Z,10.50
2023-04-16T10:17:04.303Z,9.88
2023-04-16T10:19:32.325Z,8.98
2023-04-16T10:21:59.715Z,13.40
2023-04-16T10:24:26.602Z,14.90
2023-04-16T10:29:22.019Z,10.25
2023-04-16T10:31:50.404Z,10.20
2023-04-16T10:34:18.372Z,9.98
2023-04-16T10:36:49.566Z,9.95
2023-04-16T10:39:22.473Z,10.23
2023-04-16T10:41:51.441Z,9.30
2023-04-16T10:44:19.440Z,9.50
2023-04-16T10:46:49.827Z,10.13
2023-04-16T10:49:20.357Z,10.43
2023-04-16T10:52:02.374Z,9.82
2023-04-16T10:54:35.493Z,10.10
2023-04-16T10:57:17.846Z,10.10
2023-04-16T10:59:46.104Z,9.73
2023-04-16T11:02:22.996Z,11.05
2023-04-16T11:04:51.234Z,11.15
2023-04-16T11:07:20.629Z,9.52
2023-04-16T11:10:02.052Z,11.20
2023-04-16T11:12:38.146Z,9.57
2023-04-16T11:15:11.130Z,11.15
2023-04-16T11:17:48.790Z,10.27
2023-04-16T11:20:20.117Z,11.90
2023-04-16T11:22:52.449Z,11.15
2023-04-16T11:25:30.357Z,12.43
2023-04-16T11:28:00.355Z,12.52
2023-04-16T11:30:33.332Z,13.15
2023-04-16T11:33:07.693Z,12.07
2023-04-16T11:35:34.504Z,12.82
2023-04-16T11:40:31.982Z,15.32
2023-04-16T11:43:04.122Z,13.43
2023-04-16T11:45:31.474Z,12.45
2023-04-16T11:47:58.548Z,10.65
2023-04-16T11:50:29.452Z,14.25
2023-04-16T11:53:04.250Z,13.35
2023-04-16T11:55:31.406Z,12.27
2023-04-16T11:58:11.078Z,12.88
2023-04-16T12:00:38.045Z,12.73
2023-04-16T12:05:35.007Z,13.82
2023-04-16T12:08:07.322Z,14.60
2023-04-16T12:10:53.392Z,14.15
2023-04-16T12:13:20.212Z,14.82
2023-04-16T12:15:55.306Z,13.30
2023-04-16T12:18:24.325Z,13.80
2023-04-16T12:20:51.363Z,13.27
2023-04-16T12:23:31.078Z,12.45
2023-04-16T12:26:02.290Z,12.43
2023-04-16T12:28:33.760Z,13.40
2023-04-16T12:31:02.534Z,14.13
2023-04-16T12:33:32.990Z,14.27
2023-04-16T12:36:16.892Z,13.90
2023-04-16T12:38:43.902Z,12.38
2023-04-16T12:41:11.400Z,14.52
2023-04-16T12:43:38.574Z,14.80
2023-04-16T12:46:09.029Z,13.13
2023-04-16T12:48:43.373Z,13.55
2023-04-16T12:51:17.789Z,15.68
2023-04-16T12:53:46.257Z,14.45
2023-04-16T12:56:13.666Z,14.85
2023-04-16T12:58:41.078Z,16.10
2023-04-16T13:01:08.358Z,15.23
2023-04-16T13:03:38.607Z,15.55
2023-04-16T13:06:05.895Z,15.88
2023-04-16T13:08:32.817Z,19.25
2023-04-16T13:13:27.167Z,15.10
2023-04-16T13:15:54.363Z,15.13
2023-04-16T13:18:21.429Z,13.10
2023-04-16T13:20:48.341Z,14.50
2023-04-16T13:25:42.621Z,13.40
2023-04-16T13:28:09.469Z,11.32
2023-04-16T13:33:04.980Z,12.50
2023-04-16T13:35:32.026Z,11.32
2023-04-16T13:37:59.131Z,9.93
2023-04-16T13:40:27.793Z,11.18
2023-04-16T13:42:55.122Z,10.95
2023-04-16T13:45:24.552Z,11.50
2023-04-16T13:47:51.637Z,10.57
2023-04-16T13:50:19.262Z,10.32
2023-04-16T13:52:46.675Z,10.85
2023-04-16T13:55:19.407Z,10.80
2023-04-16T13:57:48.239Z,9.90
2023-04-16T14:00:19.192Z,10.82
2023-04-16T14:02:49.020Z,10.50
2023-04-16T14:05:19.555Z,10.63
2023-04-16T14:07:49.540Z,10.77
2023-04-16T14:10:17.219Z,11.57
2023-04-16T14:12:47.610Z,10.85
2023-04-16T14:15:19.982Z,10.23
2023-04-16T14:17:47.662Z,12.10
2023-04-16T14:20:17.587Z,9.93
2023-04-16T14:22:46.744Z,10.65
2023-04-16T14:25:16.995Z,11.10
2023-04-16T14:27:44.017Z,11.82
2023-04-16T14:30:14.020Z,9.77
2023-04-16T14:32:41.098Z,11.57
2023-04-16T14:35:08.667Z,12.55
2023-04-16T14:37:36.812Z,11.73
2023-04-16T14:40:08.724Z,12.77
2023-04-16T14:42:36.806Z,11.13
2023-04-16T14:45:06.502Z,13.65
2023-04-16T14:47:37.833Z,14.13
2023-04-16T14:50:05.456Z,13.65
2023-04-16T14:52:32.767Z,13.98
2023-04-16T14:54:59.834Z,13.85
2023-04-16T14:57:26.758Z,12.75
2023-04-16T14:59:53.717Z,12.23
2023-04-16T15:02:21.313Z,12.45
2023-04-16T15:04:48.244Z,12.52
2023-04-16T15:09:42.000Z,12.55
2023-04-16T15:12:09.317Z,13.30
2023-04-16T15:14:36.513Z,13.57
2023-04-16T15:17:06.796Z,17.08
2023-04-16T15:19:35.670Z,17.15
2023-04-16T15:22:02.636Z,15.60
2023-04-16T15:24:29.586Z,15.43
2023-04-16T15:26:56.417Z,14.25
2023-04-16T15:31:50.301Z,17.05
2023-04-16T15:34:17.257Z,17.73
2023-04-16T15:36:44.330Z,17.20
2023-04-16T15:39:11.498Z,15.38
2023-04-16T15:41:50.220Z,17.95
2023-04-16T15:44:26.658Z,14.95
2023-04-16T15:46:54.455Z,17.23
2023-04-16T15:49:21.209Z,15.35
2023-04-16T15:54:14.695Z,16.10
2023-04-16T15:56:41.768Z,14.20
2023-04-16T15:59:09.481Z,13.88
2023-04-16T16:01:36.603Z,13.63
2023-04-16T16:04:07.445Z,15.95
2023-04-16T16:06:35.013Z,14.70
2023-04-16T16:09:02.078Z,12.43
2023-04-16T16:11:28.956Z,13.45
2023-04-16T16:14:04.375Z,13.32
2023-04-16T16:16:45.200Z,10.75
2023-04-16T16:19:20.891Z,8.75
2023-04-16T16:21:48.394Z,9.20
2023-04-16T16:24:16.585Z,8.57
2023-04-16T16:26:44.288Z,8.82
2023-04-16T16:29:18.785Z,8.82
2023-04-16T16:31:46.493Z,8.13
2023-04-16T16:34:20.506Z,7.18
2023-04-16T16:36:49.104Z,6.93
2023-04-16T16:39:16.104Z,8.25
2023-04-16T16:41:43.094Z,8.95
2023-04-16T16:44:09.973Z,7.88
2023-04-16T16:46:37.307Z,7.78
2023-04-16T16:49:06.065Z,8.90
2023-04-16T16:51:34.175Z,8.85
2023-04-16T16:54:01.690Z,9.82
2023-04-16T16:56:30.871Z,8.32
2023-04-16T16:58:57.744Z,8.88
2023-04-16T17:04:01.031Z,8.65
2023-04-16T17:06:31.764Z,8.85
2023-04-16T17:09:01.439Z,8.07
2023-04-16T17:11:29.450Z,8.98
2023-04-16T17:13:56.729Z,9.07
2023-04-16T17:16:42.320Z,9.27
2023-04-16T17:19:16.298Z,9.20
2023-04-16T17:21:48.894Z,8.60
2023-04-16T17:24:20.960Z,8.70
2023-04-16T17:27:11.124Z,9.60
2023-04-16T17:29:41.387Z,9.38
2023-04-16T17:32:14.145Z,10.02
2023-04-16T17:34:47.917Z,13.88
2023-04-16T17:37:15.524Z,12.55
2023-04-16T17:39:43.081Z,10.70
2023-04-16T17:42:10.383Z,10.88
2023-04-16T17:44:48.098Z,9.80
2023-04-16T17:47:29.267Z,9.75
2023-04-16T17:50:07.796Z,10.32
2023-04-16T17:52:43.833Z,11.50
2023-04-16T17:55:21.770Z,10.65
2023-04-16T17:57:48.973Z,11.63
2023-04-16T18:00:16.940Z,12.50
2023-04-16T18:02:44.318Z,11.52
2023-04-16T18:05:26.026Z,12.30
2023-04-16T18:07:56.996Z,11.02
2023-04-16T18:10:46.761Z,12.75
2023-04-16T18:13:28.999Z,11.68
2023-04-16T18:16:22.834Z,11.57
2023-04-16T18:19:36.313Z,11.93
2023-04-16T18:26:08.409Z,13.20
2023-04-16T18:28:36.587Z,15.32
2023-04-16T18:31:25.262Z,16.42
2023-04-16T18:33:59.541Z,15.68
2023-04-16T18:36:38.160Z,17.17
2023-04-16T18:39:53.161Z,15.63
2023-04-16T18:43:03.896Z,17.40
2023-04-16T18:49:22.181Z,16.95
2023-04-16T18:52:15.951Z,17.38
2023-04-16T18:54:44.624Z,15.20
2023-04-16T18:57:14.205Z,16.73
2023-04-16T18:59:41.567Z,14.70
2023-04-16T19:02:12.476Z,14.75
2023-04-16T19:04:45.529Z,13.90
2023-04-16T19:07:19.666Z,13.75
2023-04-16T19:10:07.173Z,16.08
2023-04-16T19:12:45.862Z,16.63
2023-04-16T19:15:23.660Z,17.35
2023-04-16T19:17:58.533Z,13.65
2023-04-16T19:20:36.903Z,16.40
2023-04-16T19:23:10.577Z,15.70
2023-04-16T19:25:45.903Z,16.15
2023-04-16T19:28:24.215Z,18.83
2023-04-16T19:30:52.607Z,24.13
2023-04-16T19:33:27.947Z,22.50
2023-04-16T19:35:58.769Z,24.65
2023-04-16T19:38:34.835Z,22.35
2023-04-16T19:41:04.404Z,20.00
2023-04-16T19:43:42.530Z,16.50
2023-04-16T19:46:22.827Z,15.55
2023-04-16T19:48:50.006Z,18.23
2023-04-16T19:51:22.042Z,18.88
2023-04-16T19:53:59.591Z,18.27
2023-04-16T19:56:37.457Z,17.13
2023-04-16T19:59:25.675Z,18.10
2023-04-16T20:02:16.552Z,19.77
2023-04-16T20:04:56.814Z,18.60
2023-04-16T20:07:29.830Z,18.67
2023-04-16T20:09:59.882Z,22.67
2023-04-16T20:12:28.017Z,19.65
2023-04-16T20:15:05.382Z,22.33
2023-04-16T20:17:35.982Z,22.33
2023-04-16T20:20:18.742Z,19.98
2023-04-16T20:23:17.311Z,21.40
2023-04-16T20:26:12.724Z,21.25
2023-04-16T20:28:52.564Z,23.10
2023-04-16T20:33:49.095Z,21.42
2023-04-16T20:36:22.158Z,21.90
2023-04-16T20:38:53.713Z,20.95
2023-04-16T20:41:25.350Z,22.00
2023-04-16T20:43:53.225Z,18.58
2023-04-16T20:46:24.572Z,23.20
2023-04-16T20:48:52.576Z,18.80
2023-04-16T20:51:30.488Z,23.00
2023-04-16T20:54:18.374Z,20.67
2023-04-16T20:56:54.946Z,19.40
2023-04-16T20:59:49.550Z,23.00
2023-04-16T21:02:42.159Z,18.38
2023-04-16T21:05:51.182Z,21.98
2023-04-16T21:08:44.961Z,20.52
2023-04-16T21:11:49.184Z,21.60
2023-04-16T21:15:16.690Z,18.80
2023-04-16T21:18:10.291Z,20.23
2023-04-16T21:24:08.193Z,20.27
2023-04-16T21:26:35.092Z,19.77
2023-04-16T21:29:01.856Z,22.13
2023-04-16T21:31:28.971Z,22.05
2023-04-16T21:33:56.874Z,18.85
2023-04-16T21:36:26.486Z,20.80
2023-04-16T21:38:53.240Z,19.33
2023-04-16T21:41:20.115Z,19.33
2023-04-16T21:43:46.975Z,20.67
2023-04-16T21:46:13.957Z,18.67
2023-04-16T21:51:08.233Z,18.40
2023-04-16T21:53:35.314Z,19.45
2023-04-16T21:56:02.337Z,18.25
2023-04-16T21:58:29.351Z,19.92
2023-04-16T22:03:28.203Z,16.45
2023-04-16T22:06:00.939Z,19.17
2023-04-16T22:08:31.270Z,20.88
2023-04-16T22:11:03.721Z,17.13
2023-04-16T22:13:34.233Z,19.50
2023-04-16T22:16:01.321Z,17.27
2023-04-16T22:20:56.163Z,15.88
2023-04-16T22:23:26.304Z,16.73
2023-04-16T22:25:55.293Z,16.75
2023-04-16T22:28:22.513Z,15.82
2023-04-16T22:30:49.737Z,15.80
2023-04-16T22:33:16.603Z,17.17
2023-04-16T22:38:14.498Z,17.42
2023-04-16T22:40:41.271Z,14.75
2023-04-16T22:45:35.568Z,17.40
2023-04-16T22:48:02.796Z,16.63
2023-04-16T22:50:31.242Z,15.73
2023-04-16T22:52:58.133Z,15.10
2023-04-16T22:55:24.875Z,15.98
2023-04-16T22:57:51.707Z,18.15
2023-04-16T23:00:19.252Z,17.38
2023-04-16T23:02:46.149Z,16.33
2023-04-16T23:07:43.107Z,16.42
2023-04-16T23:10:10.283Z,18.23
2023-04-16T23:12:37.496Z,18.75
2023-04-16T23:15:06.375Z,19.13
2023-04-16T23:17:33.778Z,18.60
2023-04-16T23:20:00.832Z,18.13
2023-04-16T23:24:55.135Z,20.27
2023-04-16T23:29:48.843Z,18.90
2023-04-16T23:32:15.753Z,19.95
2023-04-16T23:34:42.808Z,20.67
2023-04-16T23:39:39.143Z,19.58
2023-04-16T23:42:06.124Z,20.65
2023-04-16T23:44:33.124Z,15.93
2023-04-16T23:49:26.802Z,21.05
2023-04-16T23:51:53.516Z,20.55
2023-04-16T23:54:21.359Z,20.90
2023-04-16T23:56:48.211Z,19.95
2023-04-16T23:59:15.287Z,19.30
